Time;durP1;ratioP1;P1;durP2;ratioP2;P2;SDS_P1;SDS_P2;PMS_P1;PMS_P2;Temp;Humidity;BMP_temperature;BMP_pressure;BME280_temperature;BME280_humidity;BME280_pressure;Samples;Min_cycle;Max_cycle;Signal;HPM_P1;HPM_P2
2022/11/09 00:01:23;;;;;;;;;;;2.10;99.90;;;;;;5056919;28;19962;-70
2022/11/09 00:03:52;;;;;;;;;;;2.00;99.90;;;;;;5056808;28;19912;-70
2022/11/09 00:06:18;;;;;;;;;;;2.00;99.90;;;;;;5056218;28;19920;-70
2022/11/09 00:08:44;;;;;;;;;;;2.00;99.90;;;;;;5056230;28;19913;-70
2022/11/09 00:11:10;;;;;;;;;;;2.10;99.90;;;;;;5056166;28;19961;-70
2022/11/09 00:13:36;;;;;;;;;;;2.00;99.90;;;;;;5055987;28;19924;-70
2022/11/09 00:16:02;;;;;;;;;;;2.10;99.90;;;;;;5038267;28;20292;-70
2022/11/09 00:18:28;;;;;;;;;;;2.10;99.90;;;;;;5056071;28;19919;-70
2022/11/09 00:20:54;;;;;;;;;;;2.10;99.90;;;;;;5055912;28;19913;-70
2022/11/09 00:23:19;;;;;;;;;;;2.00;99.90;;;;;;5055906;28;19908;-70
2022/11/09 00:25:46;;;;;;;;;;;2.00;99.90;;;;;;5055880;28;19913;-70
2022/11/09 00:28:12;;;;;;;;;;;2.00;99.90;;;;;;5055783;28;19916;-70
2022/11/09 00:30:37;;;;;;;;;;;2.00;99.90;;;;;;5055784;28;20042;-70
2022/11/09 00:33:03;;;;;;;;;;;2.00;99.90;;;;;;5055730;28;20000;-70
2022/11/09 00:35:29;;;;;;;;;;;1.90;99.90;;;;;;5055969;28;19941;-70
2022/11/09 00:37:54;;;;;;;;;;;1.90;99.90;;;;;;5055697;28;19912;-70
2022/11/09 00:40:20;;;;;;;;;;;1.80;99.90;;;;;;5056200;28;19962;-70
2022/11/09 00:42:45;;;;;;;;;;;1.80;99.90;;;;;;5055793;28;20281;-70
2022/11/09 00:45:11;;;;;;;;;;;1.80;99.90;;;;;;5055833;28;20293;-70
2022/11/09 00:47:36;;;;;;;;;;;1.80;99.90;;;;;;5055717;28;19966;-70
2022/11/09 00:50:02;;;;;;;;;;;1.80;99.90;;;;;;5037715;28;19920;-70
2022/11/09 00:52:28;;;;;;;;;;;1.80;99.90;;;;;;5055614;28;19908;-70
2022/11/09 00:54:54;;;;;;;;;;;1.80;99.90;;;;;;5055336;28;19913;-70
2022/11/09 00:57:19;;;;;;;;;;;1.80;99.90;;;;;;5055293;28;19913;-70
2022/11/09 00:59:45;;;;;;;;;;;1.80;99.90;;;;;;5055225;28;20002;-70
2022/11/09 01:02:10;;;;;;;;;;;1.80;99.90;;;;;;5055537;28;20349;-70
2022/11/09 01:04:36;;;;;;;;;;;1.80;99.90;;;;;;5054388;28;20296;-70
2022/11/09 01:07:01;;;;;;;;;;;1.80;99.90;;;;;;5037413;28;20443;-70
2022/11/09 01:09:27;;;;;;;;;;;1.80;99.90;;;;;;5055057;28;19913;-70
2022/11/09 01:11:52;;;;;;;;;;;1.80;99.90;;;;;;5054912;28;19960;-70
2022/11/09 01:14:18;;;;;;;;;;;1.70;99.90;;;;;;5055007;28;19928;-70
2022/11/09 01:16:44;;;;;;;;;;;1.70;99.90;;;;;;5054889;28;19913;-70
2022/11/09 01:19:10;;;;;;;;;;;1.70;99.90;;;;;;5054926;28;20007;-70
2022/11/09 01:21:35;;;;;;;;;;;1.70;99.90;;;;;;5055436;28;19909;-70
2022/11/09 01:24:01;;;;;;;;;;;1.70;99.90;;;;;;5055599;28;20422;-70
2022/11/09 01:26:27;;;;;;;;;;;1.70;99.90;;;;;;5054973;28;20420;-70
2022/11/09 01:28:52;;;;;;;;;;;1.70;99.90;;;;;;5054722;28;19999;-70
2022/11/09 01:31:19;;;;;;;;;;;1.70;99.90;;;;;;5036816;28;19913;-70
2022/11/09 01:33:45;;;;;;;;;;;1.70;99.90;;;;;;5054560;28;19948;-70
2022/11/09 01:36:15;;;;;;;;;;;1.70;99.90;;;;;;5054590;28;19917;-70
2022/11/09 01:38:41;;;;;;;;;;;1.60;99.90;;;;;;5054873;28;19995;-70
2022/11/09 01:41:07;;;;;;;;;;;1.50;99.90;;;;;;5054519;28;19952;-70
2022/11/09 01:43:33;;;;;;;;;;;1.50;99.90;;;;;;5054411;28;20344;-70
2022/11/09 01:46:05;;;;;;;;;;;1.40;99.90;;;;;;5054377;28;19909;-70
2022/11/09 01:48:36;;;;;;;;;;;1.40;99.90;;;;;;5054316;28;20392;-70
2022/11/09 01:51:04;;;;;;;;;;;1.40;99.90;;;;;;5036519;28;20415;-70
2022/11/09 01:53:32;;;;;;;;;;;1.30;99.90;;;;;;5054900;28;19909;-70
2022/11/09 01:56:00;;;;;;;;;;;1.30;99.90;;;;;;5054332;28;19909;-69
2022/11/09 01:58:29;;;;;;;;;;;1.30;99.90;;;;;;5054163;28;19916;-70
2022/11/09 02:00:56;;;;;;;;;;;1.30;99.90;;;;;;5054152;28;19916;-69
2022/11/09 02:03:24;;;;;;;;;;;1.30;99.90;;;;;;5053990;28;20322;-70
2022/11/09 02:05:50;;;;;;;;;;;1.30;99.90;;;;;;5054063;28;19998;-70
2022/11/09 02:08:16;;;;;;;;;;;1.30;99.90;;;;;;5054478;28;20380;-70
2022/11/09 02:10:45;;;;;;;;;;;1.30;99.90;;;;;;5054202;28;19958;-70
2022/11/09 02:13:12;;;;;;;;;;;1.30;99.90;;;;;;5053727;28;19970;-70
2022/11/09 02:15:38;;;;;;;;;;;1.30;99.90;;;;;;5054127;28;20331;-70
2022/11/09 02:18:03;;;;;;;;;;;1.30;99.90;;;;;;5054123;28;19998;-70
2022/11/09 02:20:29;;;;;;;;;;;1.30;99.90;;;;;;5035913;28;19939;-70
2022/11/09 02:22:55;;;;;;;;;;;1.30;99.90;;;;;;5054089;28;19955;-70
2022/11/09 02:25:21;;;;;;;;;;;1.40;99.90;;;;;;5053728;28;20322;-70
2022/11/09 02:27:47;;;;;;;;;;;1.40;99.90;;;;;;5053616;28;19912;-70
2022/11/09 02:30:13;;;;;;;;;;;1.30;99.90;;;;;;5035762;28;19960;-70
2022/11/09 02:32:38;;;;;;;;;;;1.30;99.90;;;;;;5053810;28;19920;-70
2022/11/09 02:35:04;;;;;;;;;;;1.30;99.90;;;;;;5053596;28;19913;-70
2022/11/09 02:37:34;;;;;;;;;;;1.30;99.90;;;;;;5053518;28;19944;-70
2022/11/09 02:40:01;;;;;;;;;;;1.30;99.90;;;;;;5053854;28;19909;-70
2022/11/09 02:42:27;;;;;;;;;;;1.30;99.90;;;;;;5053763;28;20315;-70
2022/11/09 02:44:57;;;;;;;;;;;1.30;99.90;;;;;;5053517;28;19992;-70
2022/11/09 02:47:22;;;;;;;;;;;1.30;99.90;;;;;;5053606;28;19962;-70
2022/11/09 02:49:49;;;;;;;;;;;1.30;99.90;;;;;;5053468;28;20011;-70
2022/11/09 02:52:14;;;;;;;;;;;1.30;99.90;;;;;;5053388;28;19915;-70
2022/11/09 02:54:40;;;;;;;;;;;1.20;99.90;;;;;;5053679;28;19905;-70
2022/11/09 02:57:06;;;;;;;;;;;1.20;99.90;;;;;;5053480;28;19974;-70
2022/11/09 02:59:31;;;;;;;;;;;1.20;99.90;;;;;;5053325;28;20008;-70
2022/11/09 03:01:57;;;;;;;;;;;1.10;99.90;;;;;;5053353;28;19909;-70
2022/11/09 03:04:22;;;;;;;;;;;1.00;99.90;;;;;;5053504;28;19917;-70
2022/11/09 03:06:48;;;;;;;;;;;1.00;99.90;;;;;;5053732;28;19924;-70
2022/11/09 03:09:14;;;;;;;;;;;0.90;99.90;;;;;;5053192;28;19913;-70
2022/11/09 03:11:40;;;;;;;;;;;1.00;99.90;;;;;;5035406;28;19912;-70
2022/11/09 03:14:06;;;;;;;;;;;0.90;99.90;;;;;;5035596;28;19999;-70
2022/11/09 03:16:31;;;;;;;;;;;0.90;99.90;;;;;;5053292;28;20377;-70
2022/11/09 03:18:57;;;;;;;;;;;0.80;99.90;;;;;;5053209;28;20300;-70
2022/11/09 03:21:23;;;;;;;;;;;0.80;99.90;;;;;;5053442;28;19920;-70
2022/11/09 03:23:49;;;;;;;;;;;0.80;99.90;;;;;;5053028;28;19917;-70
2022/11/09 03:26:15;;;;;;;;;;;0.70;99.90;;;;;;5053740;28;19920;-70
2022/11/09 03:28:41;;;;;;;;;;;0.80;99.90;;;;;;5057165;28;20003;-70
2022/11/09 03:31:07;;;;;;;;;;;0.80;99.90;;;;;;5057263;28;19909;-70
2022/11/09 03:33:33;;;;;;;;;;;0.80;99.90;;;;;;5057013;28;20314;-69
2022/11/09 03:35:59;;;;;;;;;;;0.80;99.90;;;;;;5057116;28;19978;-69
2022/11/09 03:38:24;;;;;;;;;;;0.80;99.90;;;;;;5056904;28;20008;-70
2022/11/09 03:40:50;;;;;;;;;;;0.80;99.90;;;;;;5056727;28;20384;-70
2022/11/09 03:43:16;;;;;;;;;;;0.80;99.90;;;;;;5056792;28;20007;-70
2022/11/09 03:45:41;;;;;;;;;;;0.80;99.90;;;;;;5056695;28;19932;-70
2022/11/09 03:48:07;;;;;;;;;;;0.90;99.90;;;;;;5056543;28;19978;-70
2022/11/09 03:50:33;;;;;;;;;;;0.90;99.90;;;;;;5056639;28;19999;-70
2022/11/09 03:52:59;;;;;;;;;;;0.90;99.90;;;;;;5056725;28;19947;-70
2022/11/09 03:55:25;;;;;;;;;;;0.90;99.90;;;;;;5056504;28;19913;-70
2022/11/09 03:57:51;;;;;;;;;;;0.80;99.90;;;;;;5056519;28;19931;-70
2022/11/09 04:00:18;;;;;;;;;;;0.80;99.90;;;;;;5056471;28;20314;-70
2022/11/09 04:02:43;;;;;;;;;;;0.80;99.90;;;;;;5056366;28;19916;-70
2022/11/09 04:05:09;;;;;;;;;;;0.80;99.90;;;;;;5056402;28;20289;-70
2022/11/09 04:07:34;;;;;;;;;;;0.80;99.90;;;;;;5056204;28;19920;-70
2022/11/09 04:10:00;;;;;;;;;;;0.80;99.90;;;;;;5038960;28;19952;-70
2022/11/09 04:12:26;;;;;;;;;;;0.80;99.90;;;;;;5056099;28;20018;-70
2022/11/09 04:14:51;;;;;;;;;;;0.80;99.90;;;;;;5038505;28;20370;-70
2022/11/09 04:17:17;;;;;;;;;;;0.80;99.90;;;;;;5038795;28;19913;-70
2022/11/09 04:19:42;;;;;;;;;;;0.80;99.90;;;;;;5056142;28;19913;-70
2022/11/09 04:22:08;;;;;;;;;;;0.80;99.90;;;;;;5056022;28;19909;-70
2022/11/09 04:24:33;;;;;;;;;;;0.70;99.90;;;;;;5056160;28;19913;-70
2022/11/09 04:26:59;;;;;;;;;;;0.70;99.90;;;;;;5038709;28;19974;-70
2022/11/09 04:29:24;;;;;;;;;;;0.60;99.90;;;;;;5037920;28;19988;-70
2022/11/09 04:31:50;;;;;;;;;;;0.60;99.90;;;;;;5054963;28;20331;-70
2022/11/09 04:34:16;;;;;;;;;;;0.60;99.90;;;;;;5055698;28;19963;-70
2022/11/09 04:36:42;;;;;;;;;;;0.60;99.90;;;;;;5055704;28;19924;-70
2022/11/09 04:39:08;;;;;;;;;;;0.60;99.90;;;;;;5054015;28;19917;-70
2022/11/09 04:41:33;;;;;;;;;;;0.50;99.90;;;;;;5055445;28;19915;-70
2022/11/09 04:43:59;;;;;;;;;;;0.50;99.90;;;;;;5019247;28;20312;-70
2022/11/09 04:46:25;;;;;;;;;;;0.40;99.90;;;;;;5051295;28;19919;-69
2022/11/09 04:48:51;;;;;;;;;;;0.50;99.90;;;;;;5055436;28;19909;-70
2022/11/09 04:51:16;;;;;;;;;;;0.50;99.90;;;;;;5055363;28;19920;-70
2022/11/09 04:53:42;;;;;;;;;;;0.50;99.90;;;;;;5055317;28;19917;-70
2022/11/09 04:56:08;;;;;;;;;;;0.50;99.90;;;;;;5055441;28;19913;-69
2022/11/09 04:58:33;;;;;;;;;;;0.50;99.90;;;;;;5055302;28;19913;-69
2022/11/09 05:01:12;;;;;;;;;;;0.50;99.90;;;;;;5055097;28;20484;-69
2022/11/09 05:03:38;;;;;;;;;;;0.50;99.90;;;;;;5055832;28;19913;-70
2022/11/09 05:06:30;;;;;;;;;;;0.40;99.90;;;;;;5054369;28;20406;-69
2022/11/09 05:08:49;;;;;;;;;;;0.40;99.90;;;;;;5055576;28;19913;-69
2022/11/09 05:11:15;;;;;;;;;;;0.40;99.90;;;;;;5055316;28;19908;-69
2022/11/09 05:13:41;;;;;;;;;;;0.40;99.90;;;;;;5055110;28;19967;-69
2022/11/09 05:16:06;;;;;;;;;;;0.50;99.90;;;;;;5055105;28;19995;-69
2022/11/09 05:18:32;;;;;;;;;;;0.50;99.90;;;;;;5055157;28;19920;-69
2022/11/09 05:20:58;;;;;;;;;;;0.50;99.90;;;;;;5055203;28;19913;-70
2022/11/09 05:26:07;;;;;;;;;;;0.50;99.90;;;;;;5056200;28;19936;-70
2022/11/09 05:28:33;;;;;;;;;;;0.40;99.90;;;;;;5055131;28;19909;-70
2022/11/09 05:30:58;;;;;;;;;;;0.40;99.90;;;;;;5055623;28;20361;-70
2022/11/09 05:33:24;;;;;;;;;;;0.40;99.90;;;;;;5055577;28;19919;-69
2022/11/09 05:35:49;;;;;;;;;;;0.40;99.90;;;;;;5055550;28;20278;-70
2022/11/09 05:38:15;;;;;;;;;;;0.40;99.90;;;;;;5037786;28;19919;-70
2022/11/09 05:40:42;;;;;;;;;;;0.40;99.90;;;;;;5038004;28;19915;-69
2022/11/09 05:43:07;;;;;;;;;;;0.30;99.90;;;;;;5055218;28;20321;-69
2022/11/09 05:45:33;;;;;;;;;;;0.30;99.90;;;;;;5037015;28;19923;-69
2022/11/09 05:48:03;;;;;;;;;;;0.20;99.90;;;;;;5053948;28;20460;-69
2022/11/09 05:50:29;;;;;;;;;;;0.20;99.90;;;;;;5055009;28;19913;-69
2022/11/09 05:52:57;;;;;;;;;;;0.10;99.90;;;;;;5055155;28;20270;-69
2022/11/09 05:55:23;;;;;;;;;;;0.10;99.90;;;;;;5055230;28;19920;-69
2022/11/09 05:57:48;;;;;;;;;;;0.10;99.90;;;;;;5055266;28;19909;-70
2022/11/09 06:00:14;;;;;;;;;;;0.00;99.90;;;;;;5055089;28;20413;-70
2022/11/09 06:02:40;;;;;;;;;;;-0.10;99.90;;;;;;5055168;28;20377;-69
2022/11/09 06:05:05;;;;;;;;;;;-0.10;99.90;;;;;;5054158;28;19913;-69
2022/11/09 06:07:31;;;;;;;;;;;-0.10;99.90;;;;;;5054062;28;19967;-69
2022/11/09 06:09:57;;;;;;;;;;;-0.10;99.90;;;;;;5054074;28;20353;-69
2022/11/09 06:12:23;;;;;;;;;;;-0.10;99.90;;;;;;5054388;28;19917;-69
2022/11/09 06:14:48;;;;;;;;;;;-0.10;99.90;;;;;;5054605;28;19909;-69
2022/11/09 06:17:14;;;;;;;;;;;-0.10;99.90;;;;;;5053908;28;19947;-69
2022/11/09 06:19:39;;;;;;;;;;;0.00;99.90;;;;;;5053842;28;19916;-69
2022/11/09 06:22:05;;;;;;;;;;;0.00;99.90;;;;;;5054105;28;20340;-69
2022/11/09 06:24:30;;;;;;;;;;;0.00;99.90;;;;;;5053730;28;19913;-69
2022/11/09 06:26:56;;;;;;;;;;;0.10;99.90;;;;;;5053671;28;19921;-69
2022/11/09 06:29:22;;;;;;;;;;;0.10;99.90;;;;;;5054019;28;19917;-69
2022/11/09 06:31:47;;;;;;;;;;;0.10;99.90;;;;;;5036157;28;19913;-69
2022/11/09 06:34:14;;;;;;;;;;;0.10;99.90;;;;;;5053904;28;19920;-69
2022/11/09 06:36:39;;;;;;;;;;;0.10;99.90;;;;;;5054928;28;20304;-69
2022/11/09 06:39:07;;;;;;;;;;;0.10;99.90;;;;;;5036129;28;19913;-69
2022/11/09 06:41:33;;;;;;;;;;;0.00;99.90;;;;;;5053703;28;19990;-69
2022/11/09 06:43:59;;;;;;;;;;;0.00;99.90;;;;;;5053572;28;19917;-69
2022/11/09 06:46:24;;;;;;;;;;;0.00;99.90;;;;;;5053447;28;19998;-69
2022/11/09 06:48:50;;;;;;;;;;;0.00;99.90;;;;;;5053800;28;19921;-69
2022/11/09 06:51:15;;;;;;;;;;;-0.10;99.90;;;;;;5053492;28;19920;-69
2022/11/09 06:53:41;;;;;;;;;;;0.00;99.90;;;;;;5053730;28;19913;-69
2022/11/09 06:56:07;;;;;;;;;;;0.00;99.90;;;;;;5054049;28;20012;-69
2022/11/09 06:58:33;;;;;;;;;;;0.10;99.90;;;;;;5053489;28;19909;-69
2022/11/09 07:00:59;;;;;;;;;;;0.10;99.90;;;;;;5053401;28;19913;-69
2022/11/09 07:03:25;;;;;;;;;;;0.10;99.90;;;;;;5057201;28;19909;-69
2022/11/09 07:05:52;;;;;;;;;;;0.10;99.90;;;;;;5057827;28;19996;-69
2022/11/09 07:08:17;;;;;;;;;;;0.20;99.90;;;;;;5057321;28;20377;-69
2022/11/09 07:10:43;;;;;;;;;;;0.20;99.90;;;;;;5057354;28;19963;-69
2022/11/09 07:13:09;;;;;;;;;;;0.20;99.90;;;;;;5057224;28;19956;-69
2022/11/09 07:15:35;;;;;;;;;;;0.30;99.90;;;;;;5022986;28;19920;-69
2022/11/09 07:18:02;;;;;;;;;;;0.30;99.90;;;;;;5057500;28;19932;-69
2022/11/09 07:20:28;;;;;;;;;;;0.40;99.90;;;;;;5057455;28;19932;-69
2022/11/09 07:22:53;;;;;;;;;;;0.40;99.90;;;;;;5057832;28;19909;-69
2022/11/09 07:25:19;;;;;;;;;;;0.50;99.90;;;;;;5057154;28;19913;-69
2022/11/09 07:27:45;;;;;;;;;;;0.50;99.90;;;;;;5039095;28;19917;-69
2022/11/09 07:30:10;;;;;;;;;;;0.50;99.90;;;;;;5057048;28;19936;-69
2022/11/09 07:32:37;;;;;;;;;;;0.50;99.90;;;;;;5057136;28;20407;-68
2022/11/09 07:35:03;;;;;;;;;;;0.60;99.90;;;;;;5057503;28;19917;-69
2022/11/09 07:37:29;;;;;;;;;;;0.60;99.90;;;;;;5057481;28;19962;-69
2022/11/09 07:39:54;;;;;;;;;;;0.60;99.90;;;;;;5056796;28;20423;-69
2022/11/09 07:42:20;;;;;;;;;;;0.60;99.90;;;;;;5057111;28;19943;-70
2022/11/09 07:44:45;;;;;;;;;;;0.60;99.90;;;;;;5056947;28;20000;-70
2022/11/09 07:47:11;;;;;;;;;;;0.60;99.90;;;;;;5056666;28;19996;-70
2022/11/09 07:49:36;;;;;;;;;;;0.60;99.90;;;;;;5039593;28;19913;-70
2022/11/09 07:52:02;;;;;;;;;;;0.60;99.90;;;;;;5057410;28;19996;-70
2022/11/09 07:54:28;;;;;;;;;;;0.70;99.90;;;;;;5057335;28;19920;-70
2022/11/09 07:56:53;;;;;;;;;;;0.80;99.90;;;;;;5056976;28;20373;-70
2022/11/09 07:59:19;;;;;;;;;;;0.90;99.90;;;;;;5057035;28;20411;-70
2022/11/09 08:01:44;;;;;;;;;;;1.00;99.90;;;;;;5057140;28;20394;-70
2022/11/09 08:04:10;;;;;;;;;;;1.10;99.90;;;;;;5056573;28;20003;-70
2022/11/09 08:06:35;;;;;;;;;;;1.20;99.90;;;;;;5056963;28;19917;-70
2022/11/09 08:09:01;;;;;;;;;;;1.30;99.90;;;;;;5057019;28;19920;-70
2022/11/09 08:11:26;;;;;;;;;;;1.40;99.90;;;;;;5056663;28;19913;-70
2022/11/09 08:13:52;;;;;;;;;;;1.60;99.90;;;;;;5055946;28;20352;-70
2022/11/09 08:16:18;;;;;;;;;;;1.70;99.90;;;;;;5056308;28;19920;-70
2022/11/09 08:18:43;;;;;;;;;;;1.90;99.90;;;;;;5056313;28;19920;-70
2022/11/09 08:21:09;;;;;;;;;;;2.00;99.90;;;;;;5056017;28;19916;-71
2022/11/09 08:23:34;;;;;;;;;;;2.10;99.90;;;;;;5056212;28;19912;-70
2022/11/09 08:26:04;;;;;;;;;;;2.20;99.90;;;;;;5055978;28;19909;-71
2022/11/09 08:28:30;;;;;;;;;;;2.30;99.90;;;;;;5056180;28;19948;-71
2022/11/09 08:30:56;;;;;;;;;;;2.50;99.90;;;;;;5055899;28;19932;-71
2022/11/09 08:33:22;;;;;;;;;;;2.60;99.90;;;;;;5056030;28;19913;-71
2022/11/09 08:35:48;;;;;;;;;;;2.70;99.90;;;;;;5055904;28;19913;-71
2022/11/09 08:38:13;;;;;;;;;;;2.80;99.90;;;;;;5056362;28;20452;-71
2022/11/09 08:40:39;;;;;;;;;;;3.00;99.90;;;;;;5055886;28;20297;-72
2022/11/09 08:43:05;;;;;;;;;;;3.10;99.90;;;;;;5055674;28;20281;-72
2022/11/09 08:45:32;;;;;;;;;;;3.30;99.90;;;;;;5037747;28;19920;-72
2022/11/09 08:47:58;;;;;;;;;;;3.40;99.90;;;;;;5055481;28;19967;-72
2022/11/09 08:50:24;;;;;;;;;;;3.50;99.90;;;;;;5055807;28;19944;-72
2022/11/09 08:52:50;;;;;;;;;;;3.70;99.90;;;;;;5055379;28;19913;-72
2022/11/09 08:55:15;;;;;;;;;;;3.80;99.90;;;;;;5055784;28;20023;-71
2022/11/09 08:57:41;;;;;;;;;;;4.00;99.90;;;;;;5055904;28;19919;-72
2022/11/09 09:00:07;;;;;;;;;;;4.10;99.90;;;;;;5055351;28;19912;-72
2022/11/09 09:02:32;;;;;;;;;;;4.30;99.90;;;;;;5055167;28;19999;-71
2022/11/09 09:04:58;;;;;;;;;;;4.50;99.90;;;;;;5037411;28;20352;-72
2022/11/09 09:07:24;;;;;;;;;;;4.70;99.90;;;;;;5055132;28;20281;-72
2022/11/09 09:09:49;;;;;;;;;;;4.90;99.90;;;;;;5055705;28;19919;-72
2022/11/09 09:12:15;;;;;;;;;;;5.10;99.90;;;;;;5055043;28;19943;-71
2022/11/09 09:14:40;;;;;;;;;;;5.30;99.90;;;;;;5055045;28;19944;-72
2022/11/09 09:17:06;;;;;;;;;;;5.60;99.90;;;;;;5055333;28;19920;-72
2022/11/09 09:19:31;;;;;;;;;;;5.80;99.90;;;;;;5055235;28;19924;-72
2022/11/09 09:21:57;;;;;;;;;;;6.00;99.90;;;;;;5055222;28;19996;-72
2022/11/09 09:24:23;;;;;;;;;;;6.10;99.90;;;;;;5054190;28;19913;-72
2022/11/09 09:26:48;;;;;;;;;;;6.30;99.90;;;;;;5055003;28;20285;-72
2022/11/09 09:29:14;;;;;;;;;;;6.50;99.90;;;;;;5055311;28;19917;-72
2022/11/09 09:31:40;;;;;;;;;;;6.60;99.90;;;;;;5055002;28;20381;-72
2022/11/09 09:34:05;;;;;;;;;;;6.80;99.90;;;;;;5054571;28;20331;-72
2022/11/09 09:36:31;;;;;;;;;;;7.00;99.90;;;;;;5055017;28;20003;-72
2022/11/09 09:38:57;;;;;;;;;;;7.10;99.90;;;;;;5054591;28;19959;-72
2022/11/09 09:41:26;;;;;;;;;;;7.30;99.90;;;;;;5054763;28;19944;-72
2022/11/09 09:43:53;;;;;;;;;;;7.40;99.90;;;;;;5054423;28;19909;-72
2022/11/09 09:46:19;;;;;;;;;;;7.50;99.90;;;;;;5054343;28;20373;-73
2022/11/09 09:48:47;;;;;;;;;;;7.60;99.90;;;;;;5054425;28;19962;-73
2022/11/09 09:51:16;;;;;;;;;;;7.70;99.90;;;;;;5054251;28;20365;-72
2022/11/09 09:53:45;;;;;;;;;;;7.70;99.90;;;;;;5054171;28;19919;-73
2022/11/09 09:56:15;;;;;;;;;;;7.80;99.90;;;;;;5054213;28;19909;-72
2022/11/09 09:58:50;;;;;;;;;;;7.80;99.90;;;;;;5054786;28;20311;-73
2022/11/09 10:01:18;;;;;;;;;;;7.80;99.90;;;;;;5054420;28;19916;-73
2022/11/09 10:03:45;;;;;;;;;;;7.90;99.90;;;;;;5054071;28;20382;-72
2022/11/09 10:06:10;;;;;;;;;;;7.90;99.90;;;;;;5036203;28;19920;-73
2022/11/09 10:08:38;;;;;;;;;;;7.90;99.90;;;;;;5053969;28;20002;-73
2022/11/09 10:11:33;;;;;;;;;;;8.00;99.90;;;;;;5054595;28;19909;-72
2022/11/09 10:14:17;;;;;;;;;;;8.10;99.90;;;;;;5040272;28;20355;-73
2022/11/09 10:16:48;;;;;;;;;;;8.20;99.90;;;;;;5053987;28;19909;-73
2022/11/09 10:19:32;;;;;;;;;;;8.30;99.90;;;;;;5053816;28;19952;-73
2022/11/09 10:21:58;;;;;;;;;;;8.40;99.90;;;;;;5053857;28;19909;-73
2022/11/09 10:24:29;;;;;;;;;;;8.50;99.90;;;;;;5053701;28;19909;-73
2022/11/09 10:26:56;;;;;;;;;;;8.60;99.90;;;;;;5053755;28;19917;-73
2022/11/09 10:29:23;;;;;;;;;;;8.60;99.90;;;;;;5053712;28;19916;-73
2022/11/09 10:31:53;;;;;;;;;;;8.80;99.90;;;;;;5053691;28;19908;-73
2022/11/09 10:34:28;;;;;;;;;;;8.90;99.90;;;;;;5053605;28;19909;-73
2022/11/09 10:36:57;;;;;;;;;;;9.00;99.90;;;;;;5053021;28;19948;-73
2022/11/09 10:39:25;;;;;;;;;;;9.10;99.90;;;;;;5053655;28;19913;-73
2022/11/09 10:41:51;;;;;;;;;;;9.20;99.90;;;;;;5053620;28;19908;-73
2022/11/09 10:44:17;;;;;;;;;;;9.20;99.90;;;;;;5053561;28;19913;-72
2022/11/09 10:47:03;;;;;;;;;;;9.30;99.90;;;;;;5035700;28;19920;-73
2022/11/09 10:49:29;;;;;;;;;;;9.40;99.90;;;;;;5053823;28;20361;-72
2022/11/09 10:51:55;;;;;;;;;;;9.50;99.90;;;;;;5053437;28;19916;-73
2022/11/09 10:54:21;;;;;;;;;;;9.70;99.90;;;;;;5053412;28;20391;-72
2022/11/09 10:56:48;;;;;;;;;;;9.80;99.90;;;;;;5035779;28;19959;-73
2022/11/09 10:59:32;;;;;;;;;;;9.80;99.90;;;;;;5053625;28;19909;-73
2022/11/09 11:01:58;;;;;;;;;;;9.90;99.90;;;;;;5053625;28;20435;-73
2022/11/09 11:04:24;;;;;;;;;;;10.00;99.90;;;;;;5054339;28;19913;-73
2022/11/09 11:06:49;;;;;;;;;;;10.00;99.90;;;;;;5053219;28;20292;-73
2022/11/09 11:09:18;;;;;;;;;;;10.10;99.90;;;;;;5053861;28;19916;-74
2022/11/09 11:11:44;;;;;;;;;;;10.10;99.90;;;;;;5053282;28;19909;-73
2022/11/09 11:14:09;;;;;;;;;;;10.20;99.90;;;;;;5053534;28;20300;-73
2022/11/09 11:16:35;;;;;;;;;;;10.30;99.90;;;;;;5053257;28;19935;-73
2022/11/09 11:19:02;;;;;;;;;;;10.50;99.90;;;;;;5053218;28;19913;-73
2022/11/09 11:21:28;;;;;;;;;;;10.50;99.90;;;;;;5053199;28;19912;-74
2022/11/09 11:24:02;;;;;;;;;;;10.60;99.90;;;;;;5053115;28;20383;-73
2022/11/09 11:26:35;;;;;;;;;;;10.70;99.90;;;;;;5053061;28;19909;-74
2022/11/09 11:29:05;;;;;;;;;;;10.70;99.90;;;;;;5053453;28;19948;-73
2022/11/09 11:31:31;;;;;;;;;;;10.80;99.90;;;;;;5053135;28;19974;-73
2022/11/09 11:33:57;;;;;;;;;;;10.90;99.90;;;;;;5052961;28;19956;-73
2022/11/09 11:36:22;;;;;;;;;;;10.90;99.90;;;;;;5053557;28;19999;-74
2022/11/09 11:38:54;;;;;;;;;;;11.00;99.90;;;;;;5053081;28;19959;-73
2022/11/09 11:41:25;;;;;;;;;;;11.00;99.90;;;;;;5053001;28;19913;-74
2022/11/09 11:43:58;;;;;;;;;;;11.10;99.90;;;;;;5052871;28;19909;-73
2022/11/09 11:46:36;;;;;;;;;;;11.10;99.90;;;;;;5053175;28;19971;-74
2022/11/09 11:49:28;;;;;;;;;;;11.20;99.90;;;;;;5056033;28;19909;-74
2022/11/09 11:52:01;;;;;;;;;;;11.30;99.90;;;;;;5053534;28;19954;-73
2022/11/09 11:54:53;;;;;;;;;;;11.30;99.90;;;;;;5056724;28;20003;-73
2022/11/09 11:57:21;;;;;;;;;;;11.40;99.90;;;;;;5053222;28;19963;-74
2022/11/09 11:59:59;;;;;;;;;;;11.50;99.90;;;;;;5057004;28;19909;-74
2022/11/09 12:02:43;;;;;;;;;;;11.60;99.90;;;;;;5056681;28;19935;-73
2022/11/09 12:05:27;;;;;;;;;;;11.70;99.90;;;;;;5056469;28;19905;-75
2022/11/09 12:07:53;;;;;;;;;;;11.70;99.90;;;;;;5057129;28;20280;-74
2022/11/09 12:10:27;;;;;;;;;;;11.80;99.80;;;;;;5056712;28;19912;-74
2022/11/09 12:13:11;;;;;;;;;;;11.90;99.90;;;;;;5056091;28;20288;-73
2022/11/09 12:15:49;;;;;;;;;;;12.00;99.90;;;;;;5056266;28;19912;-73
2022/11/09 12:18:14;;;;;;;;;;;12.10;99.90;;;;;;5056166;28;19916;-74
2022/11/09 12:20:51;;;;;;;;;;;12.30;99.90;;;;;;5056105;28;19909;-73
2022/11/09 12:23:26;;;;;;;;;;;12.40;99.90;;;;;;5056187;28;19909;-73
2022/11/09 12:25:59;;;;;;;;;;;12.50;99.90;;;;;;5056027;28;19908;-73
2022/11/09 12:28:43;;;;;;;;;;;12.60;99.90;;;;;;5056084;28;19916;-74
2022/11/09 12:31:12;;;;;;;;;;;12.70;99.90;;;;;;5056243;28;19909;-74
2022/11/09 12:33:38;;;;;;;;;;;12.80;99.90;;;;;;5055817;28;19909;-73
2022/11/09 12:36:23;;;;;;;;;;;12.90;99.90;;;;;;5056529;28;19916;-69
2022/11/09 12:38:56;;;;;;;;;;;12.90;99.90;;;;;;5037928;28;19941;-69
2022/11/09 12:41:24;;;;;;;;;;;13.00;99.90;;;;;;5055448;28;19917;-69
2022/11/09 12:43:56;;;;;;;;;;;13.10;99.90;;;;;;5036794;28;19912;-69
2022/11/09 12:46:25;;;;;;;;;;;13.30;99.90;;;;;;5055336;28;19917;-69
2022/11/09 12:48:51;;;;;;;;;;;13.40;99.90;;;;;;5055379;28;20282;-69
2022/11/09 12:51:18;;;;;;;;;;;13.50;99.90;;;;;;5056029;28;19909;-69
2022/11/09 12:53:43;;;;;;;;;;;13.60;99.90;;;;;;5055465;28;19966;-69
2022/11/09 12:56:24;;;;;;;;;;;13.70;99.90;;;;;;5020612;28;20391;-69
2022/11/09 12:58:50;;;;;;;;;;;13.70;99.90;;;;;;5055393;28;20285;-69
2022/11/09 13:01:26;;;;;;;;;;;13.70;99.90;;;;;;5055112;28;19908;-69
2022/11/09 13:03:52;;;;;;;;;;;13.80;99.90;;;;;;5055559;28;20007;-69
2022/11/09 13:06:25;;;;;;;;;;;13.90;99.90;;;;;;5055233;28;20289;-69
2022/11/09 13:08:57;;;;;;;;;;;14.00;99.90;;;;;;5055197;28;19920;-69
2022/11/09 13:11:28;;;;;;;;;;;14.10;99.90;;;;;;5055062;28;20377;-69
2022/11/09 13:14:14;;;;;;;;;;;14.10;99.90;;;;;;5054953;28;19916;-69
2022/11/09 13:16:39;;;;;;;;;;;14.20;99.90;;;;;;5040901;28;19909;-69
2022/11/09 13:19:07;;;;;;;;;;;14.40;99.60;;;;;;5054999;28;19959;-69
2022/11/09 13:21:34;;;;;;;;;;;14.40;99.20;;;;;;5054883;28;19919;-69
2022/11/09 13:24:19;;;;;;;;;;;14.50;98.70;;;;;;5054760;28;19944;-69
2022/11/09 13:26:45;;;;;;;;;;;14.50;98.20;;;;;;5054533;28;19919;-69
2022/11/09 13:29:26;;;;;;;;;;;14.50;97.90;;;;;;5054667;28;19991;-69
2022/11/09 13:32:07;;;;;;;;;;;14.50;97.10;;;;;;5055610;28;19931;-68
2022/11/09 13:34:43;;;;;;;;;;;14.50;96.90;;;;;;5054669;28;20369;-69
2022/11/09 13:37:27;;;;;;;;;;;14.50;96.80;;;;;;5054558;28;20293;-69
2022/11/09 13:39:52;;;;;;;;;;;14.50;97.20;;;;;;5054736;28;19913;-69
2022/11/09 13:42:24;;;;;;;;;;;14.50;96.90;;;;;;5054645;28;19915;-69
2022/11/09 13:44:50;;;;;;;;;;;14.40;96.50;;;;;;5054756;28;19915;-69
2022/11/09 13:47:22;;;;;;;;;;;14.40;96.60;;;;;;5054380;28;20288;-69
2022/11/09 13:49:49;;;;;;;;;;;14.40;96.30;;;;;;5054428;28;19913;-69
2022/11/09 13:52:50;;;;;;;;;;;14.40;95.50;;;;;;5054208;28;20003;-69
2022/11/09 13:55:24;;;;;;;;;;;14.30;94.70;;;;;;4973582;28;20426;-69
2022/11/09 13:57:52;;;;;;;;;;;14.30;94.80;;;;;;5042451;28;19909;-69
2022/11/09 14:00:22;;;;;;;;;;;14.20;94.80;;;;;;5054201;28;19947;-69
2022/11/09 14:03:06;;;;;;;;;;;14.20;95.00;;;;;;5054247;28;20011;-69
2022/11/09 14:05:32;;;;;;;;;;;14.10;94.80;;;;;;5054136;28;20266;-68
2022/11/09 14:08:00;;;;;;;;;;;14.00;96.30;;;;;;5054212;28;19920;-68
2022/11/09 14:10:50;;;;;;;;;;;14.00;96.50;;;;;;5054168;28;19913;-68
2022/11/09 14:13:28;;;;;;;;;;;13.90;96.90;;;;;;5053949;28;19916;-69
2022/11/09 14:15:54;;;;;;;;;;;13.80;96.70;;;;;;5053938;28;20000;-69
2022/11/09 14:18:38;;;;;;;;;;;13.80;97.00;;;;;;5054525;28;19945;-69
2022/11/09 14:21:39;;;;;;;;;;;13.70;96.90;;;;;;5054238;28;19974;-69
2022/11/09 14:24:13;;;;;;;;;;;13.60;97.50;;;;;;4973101;28;19911;-69
2022/11/09 14:26:38;;;;;;;;;;;13.60;98.30;;;;;;5041768;28;19909;-68
2022/11/09 14:29:20;;;;;;;;;;;13.60;99.00;;;;;;5054178;28;19916;-68
2022/11/09 14:31:46;;;;;;;;;;;13.50;99.20;;;;;;5054287;28;20254;-69
2022/11/09 14:34:15;;;;;;;;;;;13.50;99.90;;;;;;5053931;28;20087;-69